sensor_id;sensor_type;location;lat;lon;timestamp;P1;durP1;ratioP1;P2;durP2;ratioP2
34204;SDS011;20471;49.680;20.074;2024-01-27T00:05:26;3.70;;;2.40;;
34204;SDS011;20471;49.680;20.074;2024-01-27T00:11:11;4.50;;;2.70;;
34204;SDS011;20471;49.680;20.074;2024-01-27T00:14:04;4.60;;;2.70;;
34204;SDS011;20471;49.680;20.074;2024-01-27T00:19:54;2.90;;;2.00;;
34204;SDS011;20471;49.680;20.074;2024-01-27T00:28:32;2.90;;;1.80;;
34204;SDS011;20471;49.680;20.074;2024-01-27T00:31:14;3.40;;;1.40;;
34204;SDS011;20471;49.680;20.074;2024-01-27T00:34:05;1.90;;;1.20;;
34204;SDS011;20471;49.680;20.074;2024-01-27T00:36:58;4.40;;;1.30;;
34204;SDS011;20471;49.680;20.074;2024-01-27T01:01:33;3.10;;;1.00;;
34204;SDS011;20471;49.680;20.074;2024-01-27T01:07:15;2.70;;;1.60;;
34204;SDS011;20471;49.680;20.074;2024-01-27T01:10:06;3.80;;;1.30;;
34204;SDS011;20471;49.680;20.074;2024-01-27T01:13:23;3.40;;;1.60;;
34204;SDS011;20471;49.680;20.074;2024-01-27T01:16:14;3.70;;;1.00;;
34204;SDS011;20471;49.680;20.074;2024-01-27T01:19:14;2.70;;;1.00;;
34204;SDS011;20471;49.680;20.074;2024-01-27T01:25:08;2.90;;;1.40;;
34204;SDS011;20471;49.680;20.074;2024-01-27T01:30:55;6.40;;;1.40;;
34204;SDS011;20471;49.680;20.074;2024-01-27T01:33:33;2.90;;;1.20;;
34204;SDS011;20471;49.680;20.074;2024-01-27T01:36:19;9.40;;;1.60;;
34204;SDS011;20471;49.680;20.074;2024-01-27T01:39:10;2.70;;;1.40;;
34204;SDS011;20471;49.680;20.074;2024-01-27T01:42:01;8.80;;;1.70;;
34204;SDS011;20471;49.680;20.074;2024-01-27T01:44:34;5.30;;;1.30;;
34204;SDS011;20471;49.680;20.074;2024-01-27T01:47:09;8.60;;;1.90;;
34204;SDS011;20471;49.680;20.074;2024-01-27T01:49:40;5.30;;;1.90;;
34204;SDS011;20471;49.680;20.074;2024-01-27T01:52:10;9.10;;;2.20;;
34204;SDS011;20471;49.680;20.074;2024-01-27T01:57:47;8.30;;;1.90;;
34204;SDS011;20471;49.680;20.074;2024-01-27T02:00:27;14.20;;;1.80;;
34204;SDS011;20471;49.680;20.074;2024-01-27T02:06:06;6.80;;;1.90;;
34204;SDS011;20471;49.680;20.074;2024-01-27T02:08:39;7.80;;;1.60;;
34204;SDS011;20471;49.680;20.074;2024-01-27T02:11:10;5.40;;;1.70;;
34204;SDS011;20471;49.680;20.074;2024-01-27T02:14:06;10.70;;;2.60;;
34204;SDS011;20471;49.680;20.074;2024-01-27T02:16:56;7.00;;;2.30;;
34204;SDS011;20471;49.680;20.074;2024-01-27T02:19:28;11.50;;;2.40;;
34204;SDS011;20471;49.680;20.074;2024-01-27T02:22:04;11.70;;;2.90;;
34204;SDS011;20471;49.680;20.074;2024-01-27T02:30:32;7.80;;;2.20;;
34204;SDS011;20471;49.680;20.074;2024-01-27T02:33:03;9.60;;;2.50;;
34204;SDS011;20471;49.680;20.074;2024-01-27T02:38:49;14.50;;;3.20;;
34204;SDS011;20471;49.680;20.074;2024-01-27T02:41:37;6.50;;;2.10;;
34204;SDS011;20471;49.680;20.074;2024-01-27T02:44:15;7.80;;;2.60;;
34204;SDS011;20471;49.680;20.074;2024-01-27T02:46:49;11.90;;;2.10;;
34204;SDS011;20471;49.680;20.074;2024-01-27T02:49:22;8.30;;;1.90;;
34204;SDS011;20471;49.680;20.074;2024-01-27T02:52:14;6.10;;;2.50;;
34204;SDS011;20471;49.680;20.074;2024-01-27T02:55:12;10.90;;;2.20;;
34204;SDS011;20471;49.680;20.074;2024-01-27T02:57:49;6.90;;;2.00;;
34204;SDS011;20471;49.680;20.074;2024-01-27T03:00:36;10.00;;;1.90;;
34204;SDS011;20471;49.680;20.074;2024-01-27T03:03:04;11.40;;;1.90;;
34204;SDS011;20471;49.680;20.074;2024-01-27T03:06:16;8.10;;;1.70;;
34204;SDS011;20471;49.680;20.074;2024-01-27T03:12:05;6.60;;;1.80;;
34204;SDS011;20471;49.680;20.074;2024-01-27T03:15:22;7.90;;;2.00;;
34204;SDS011;20471;49.680;20.074;2024-01-27T03:24:14;12.50;;;2.60;;
34204;SDS011;20471;49.680;20.074;2024-01-27T03:27:23;7.80;;;2.50;;
34204;SDS011;20471;49.680;20.074;2024-01-27T03:30:04;9.50;;;1.90;;
34204;SDS011;20471;49.680;20.074;2024-01-27T03:35:47;8.40;;;2.00;;
34204;SDS011;20471;49.680;20.074;2024-01-27T03:38:15;11.50;;;1.90;;
34204;SDS011;20471;49.680;20.074;2024-01-27T03:40:46;8.90;;;2.40;;
34204;SDS011;20471;49.680;20.074;2024-01-27T03:43:29;7.90;;;1.60;;
34204;SDS011;20471;49.680;20.074;2024-01-27T03:46:25;12.50;;;2.20;;
34204;SDS011;20471;49.680;20.074;2024-01-27T03:48:51;13.20;;;3.00;;
34204;SDS011;20471;49.680;20.074;2024-01-27T03:51:19;5.40;;;1.70;;
34204;SDS011;20471;49.680;20.074;2024-01-27T03:53:47;11.70;;;2.10;;
34204;SDS011;20471;49.680;20.074;2024-01-27T03:56:15;8.00;;;2.20;;
34204;SDS011;20471;49.680;20.074;2024-01-27T03:58:42;10.20;;;2.00;;
34204;SDS011;20471;49.680;20.074;2024-01-27T04:01:10;4.10;;;1.40;;
34204;SDS011;20471;49.680;20.074;2024-01-27T04:03:38;9.80;;;1.70;;
34204;SDS011;20471;49.680;20.074;2024-01-27T04:06:05;9.00;;;2.00;;
34204;SDS011;20471;49.680;20.074;2024-01-27T04:08:33;7.30;;;1.80;;
34204;SDS011;20471;49.680;20.074;2024-01-27T04:11:01;8.70;;;2.30;;
34204;SDS011;20471;49.680;20.074;2024-01-27T04:13:28;11.80;;;2.40;;
34204;SDS011;20471;49.680;20.074;2024-01-27T04:15:56;5.50;;;1.80;;
34204;SDS011;20471;49.680;20.074;2024-01-27T04:18:27;7.20;;;1.50;;
34204;SDS011;20471;49.680;20.074;2024-01-27T04:20:55;12.10;;;2.80;;
34204;SDS011;20471;49.680;20.074;2024-01-27T04:23:23;5.90;;;1.80;;
34204;SDS011;20471;49.680;20.074;2024-01-27T04:25:51;8.20;;;1.80;;
34204;SDS011;20471;49.680;20.074;2024-01-27T04:28:18;7.90;;;1.80;;
34204;SDS011;20471;49.680;20.074;2024-01-27T04:30:46;11.00;;;2.10;;
34204;SDS011;20471;49.680;20.074;2024-01-27T04:33:14;6.50;;;2.00;;
34204;SDS011;20471;49.680;20.074;2024-01-27T04:35:41;10.10;;;2.60;;
34204;SDS011;20471;49.680;20.074;2024-01-27T04:38:09;11.00;;;2.10;;
34204;SDS011;20471;49.680;20.074;2024-01-27T04:40:37;13.60;;;2.20;;
34204;SDS011;20471;49.680;20.074;2024-01-27T04:43:04;10.00;;;2.10;;
34204;SDS011;20471;49.680;20.074;2024-01-27T04:45:32;11.50;;;2.00;;
34204;SDS011;20471;49.680;20.074;2024-01-27T04:48:00;11.90;;;2.20;;
34204;SDS011;20471;49.680;20.074;2024-01-27T04:50:28;7.20;;;2.70;;
34204;SDS011;20471;49.680;20.074;2024-01-27T04:52:55;12.90;;;2.90;;
34204;SDS011;20471;49.680;20.074;2024-01-27T04:55:23;7.50;;;2.40;;
34204;SDS011;20471;49.680;20.074;2024-01-27T04:57:51;9.20;;;2.40;;
34204;SDS011;20471;49.680;20.074;2024-01-27T05:00:19;7.00;;;2.10;;
34204;SDS011;20471;49.680;20.074;2024-01-27T05:02:47;9.00;;;3.10;;
34204;SDS011;20471;49.680;20.074;2024-01-27T05:05:15;10.30;;;2.00;;
34204;SDS011;20471;49.680;20.074;2024-01-27T05:07:42;9.60;;;2.30;;
34204;SDS011;20471;49.680;20.074;2024-01-27T05:10:10;7.00;;;2.30;;
34204;SDS011;20471;49.680;20.074;2024-01-27T05:12:38;13.60;;;3.40;;
34204;SDS011;20471;49.680;20.074;2024-01-27T05:15:06;9.90;;;2.70;;
34204;SDS011;20471;49.680;20.074;2024-01-27T05:17:34;9.40;;;2.30;;
34204;SDS011;20471;49.680;20.074;2024-01-27T05:20:02;13.20;;;2.60;;
34204;SDS011;20471;49.680;20.074;2024-01-27T05:22:30;9.00;;;2.30;;
34204;SDS011;20471;49.680;20.074;2024-01-27T05:24:58;10.90;;;2.80;;
34204;SDS011;20471;49.680;20.074;2024-01-27T05:27:26;14.80;;;2.70;;
34204;SDS011;20471;49.680;20.074;2024-01-27T05:29:53;10.70;;;2.80;;
34204;SDS011;20471;49.680;20.074;2024-01-27T05:32:21;11.30;;;2.80;;
34204;SDS011;20471;49.680;20.074;2024-01-27T05:34:49;11.80;;;2.90;;
34204;SDS011;20471;49.680;20.074;2024-01-27T05:37:17;10.30;;;2.30;;
34204;SDS011;20471;49.680;20.074;2024-01-27T05:39:44;15.00;;;2.50;;
34204;SDS011;20471;49.680;20.074;2024-01-27T05:42:12;14.50;;;3.70;;
34204;SDS011;20471;49.680;20.074;2024-01-27T05:44:40;13.00;;;2.70;;
34204;SDS011;20471;49.680;20.074;2024-01-27T05:47:07;9.20;;;2.60;;
34204;SDS011;20471;49.680;20.074;2024-01-27T05:49:37;15.00;;;2.60;;
34204;SDS011;20471;49.680;20.074;2024-01-27T05:52:04;15.10;;;2.40;;
34204;SDS011;20471;49.680;20.074;2024-01-27T05:54:32;12.90;;;2.70;;
34204;SDS011;20471;49.680;20.074;2024-01-27T05:57:01;15.40;;;3.20;;
34204;SDS011;20471;49.680;20.074;2024-01-27T05:59:29;11.00;;;3.10;;
34204;SDS011;20471;49.680;20.074;2024-01-27T06:01:57;12.30;;;2.30;;
34204;SDS011;20471;49.680;20.074;2024-01-27T06:04:25;11.70;;;2.50;;
34204;SDS011;20471;49.680;20.074;2024-01-27T06:06:52;10.50;;;2.70;;
34204;SDS011;20471;49.680;20.074;2024-01-27T06:09:20;10.00;;;2.30;;
34204;SDS011;20471;49.680;20.074;2024-01-27T06:11:48;17.00;;;3.40;;
34204;SDS011;20471;49.680;20.074;2024-01-27T06:14:15;16.00;;;3.20;;
34204;SDS011;20471;49.680;20.074;2024-01-27T06:16:43;13.90;;;2.90;;
34204;SDS011;20471;49.680;20.074;2024-01-27T06:19:11;16.70;;;4.00;;
34204;SDS011;20471;49.680;20.074;2024-01-27T06:21:38;10.00;;;3.00;;
34204;SDS011;20471;49.680;20.074;2024-01-27T06:24:06;12.40;;;2.90;;
34204;SDS011;20471;49.680;20.074;2024-01-27T06:26:34;14.60;;;3.40;;
34204;SDS011;20471;49.680;20.074;2024-01-27T06:29:01;18.00;;;4.20;;
34204;SDS011;20471;49.680;20.074;2024-01-27T06:31:29;15.50;;;4.10;;
34204;SDS011;20471;49.680;20.074;2024-01-27T06:33:57;17.30;;;5.70;;
34204;SDS011;20471;49.680;20.074;2024-01-27T06:36:24;14.40;;;4.80;;
34204;SDS011;20471;49.680;20.074;2024-01-27T06:38:53;12.40;;;4.30;;
34204;SDS011;20471;49.680;20.074;2024-01-27T06:41:21;17.10;;;4.20;;
34204;SDS011;20471;49.680;20.074;2024-01-27T06:43:49;22.40;;;3.60;;
34204;SDS011;20471;49.680;20.074;2024-01-27T06:46:16;9.80;;;2.90;;
34204;SDS011;20471;49.680;20.074;2024-01-27T06:48:44;11.10;;;3.10;;
34204;SDS011;20471;49.680;20.074;2024-01-27T06:51:12;17.30;;;3.50;;
34204;SDS011;20471;49.680;20.074;2024-01-27T06:53:39;15.60;;;5.10;;
34204;SDS011;20471;49.680;20.074;2024-01-27T06:56:07;12.30;;;3.10;;
34204;SDS011;20471;49.680;20.074;2024-01-27T06:58:35;16.00;;;3.60;;
34204;SDS011;20471;49.680;20.074;2024-01-27T07:01:03;18.70;;;4.80;;
34204;SDS011;20471;49.680;20.074;2024-01-27T07:03:31;14.50;;;4.90;;
34204;SDS011;20471;49.680;20.074;2024-01-27T07:05:58;21.00;;;5.60;;
34204;SDS011;20471;49.680;20.074;2024-01-27T07:08:27;11.80;;;3.50;;
34204;SDS011;20471;49.680;20.074;2024-01-27T07:10:55;14.90;;;3.50;;
34204;SDS011;20471;49.680;20.074;2024-01-27T07:13:23;12.00;;;3.80;;
34204;SDS011;20471;49.680;20.074;2024-01-27T07:15:53;10.40;;;2.90;;
34204;SDS011;20471;49.680;20.074;2024-01-27T07:18:20;13.90;;;2.90;;
34204;SDS011;20471;49.680;20.074;2024-01-27T07:20:48;18.20;;;4.90;;
34204;SDS011;20471;49.680;20.074;2024-01-27T07:23:16;18.70;;;4.80;;
34204;SDS011;20471;49.680;20.074;2024-01-27T07:25:44;18.10;;;3.60;;
34204;SDS011;20471;49.680;20.074;2024-01-27T07:28:12;11.40;;;2.90;;
34204;SDS011;20471;49.680;20.074;2024-01-27T07:30:42;16.50;;;3.70;;
34204;SDS011;20471;49.680;20.074;2024-01-27T07:33:09;15.40;;;3.10;;
34204;SDS011;20471;49.680;20.074;2024-01-27T07:35:37;19.80;;;4.20;;
34204;SDS011;20471;49.680;20.074;2024-01-27T07:38:05;20.30;;;4.70;;
34204;SDS011;20471;49.680;20.074;2024-01-27T07:40:32;16.80;;;3.80;;
34204;SDS011;20471;49.680;20.074;2024-01-27T07:43:00;19.10;;;3.10;;
34204;SDS011;20471;49.680;20.074;2024-01-27T07:45:28;10.50;;;3.30;;
34204;SDS011;20471;49.680;20.074;2024-01-27T07:47:56;18.30;;;4.30;;
34204;SDS011;20471;49.680;20.074;2024-01-27T07:50:23;13.50;;;3.70;;
34204;SDS011;20471;49.680;20.074;2024-01-27T07:52:51;16.60;;;4.30;;
34204;SDS011;20471;49.680;20.074;2024-01-27T07:55:19;20.40;;;5.60;;
34204;SDS011;20471;49.680;20.074;2024-01-27T07:57:46;16.60;;;4.80;;
34204;SDS011;20471;49.680;20.074;2024-01-27T08:00:14;14.70;;;3.80;;
34204;SDS011;20471;49.680;20.074;2024-01-27T08:02:42;15.60;;;4.60;;
34204;SDS011;20471;49.680;20.074;2024-01-27T08:05:10;12.40;;;3.70;;
34204;SDS011;20471;49.680;20.074;2024-01-27T08:07:38;12.10;;;3.90;;
34204;SDS011;20471;49.680;20.074;2024-01-27T08:10:05;12.70;;;3.60;;
34204;SDS011;20471;49.680;20.074;2024-01-27T08:12:37;14.40;;;3.80;;
34204;SDS011;20471;49.680;20.074;2024-01-27T08:15:05;13.40;;;4.30;;
34204;SDS011;20471;49.680;20.074;2024-01-27T08:17:33;13.70;;;3.20;;
34204;SDS011;20471;49.680;20.074;2024-01-27T08:20:01;15.20;;;3.60;;
34204;SDS011;20471;49.680;20.074;2024-01-27T08:22:30;16.20;;;3.50;;
34204;SDS011;20471;49.680;20.074;2024-01-27T08:24:58;13.20;;;2.80;;
34204;SDS011;20471;49.680;20.074;2024-01-27T08:27:26;8.30;;;3.00;;
34204;SDS011;20471;49.680;20.074;2024-01-27T08:29:53;17.50;;;3.90;;
34204;SDS011;20471;49.680;20.074;2024-01-27T08:32:21;12.90;;;3.60;;
34204;SDS011;20471;49.680;20.074;2024-01-27T08:34:48;12.20;;;3.20;;
34204;SDS011;20471;49.680;20.074;2024-01-27T08:37:19;15.10;;;3.50;;
34204;SDS011;20471;49.680;20.074;2024-01-27T08:39:48;13.90;;;3.50;;
34204;SDS011;20471;49.680;20.074;2024-01-27T08:42:17;17.80;;;3.70;;
34204;SDS011;20471;49.680;20.074;2024-01-27T08:44:45;12.60;;;3.00;;
34204;SDS011;20471;49.680;20.074;2024-01-27T08:47:12;12.00;;;3.30;;
34204;SDS011;20471;49.680;20.074;2024-01-27T08:49:40;18.00;;;3.80;;
34204;SDS011;20471;49.680;20.074;2024-01-27T08:52:08;14.60;;;3.30;;
34204;SDS011;20471;49.680;20.074;2024-01-27T08:54:35;15.60;;;2.90;;
34204;SDS011;20471;49.680;20.074;2024-01-27T08:57:03;15.60;;;3.00;;
34204;SDS011;20471;49.680;20.074;2024-01-27T08:59:31;12.80;;;3.30;;
34204;SDS011;20471;49.680;20.074;2024-01-27T09:01:59;16.20;;;3.70;;
34204;SDS011;20471;49.680;20.074;2024-01-27T09:04:27;12.80;;;3.60;;
34204;SDS011;20471;49.680;20.074;2024-01-27T09:06:55;15.10;;;3.50;;
34204;SDS011;20471;49.680;20.074;2024-01-27T09:09:22;18.10;;;4.10;;
34204;SDS011;20471;49.680;20.074;2024-01-27T09:11:50;15.00;;;3.60;;
34204;SDS011;20471;49.680;20.074;2024-01-27T09:14:18;15.20;;;3.50;;
34204;SDS011;20471;49.680;20.074;2024-01-27T09:16:45;14.60;;;3.10;;
34204;SDS011;20471;49.680;20.074;2024-01-27T09:19:13;16.30;;;3.80;;
34204;SDS011;20471;49.680;20.074;2024-01-27T09:21:41;14.80;;;2.80;;
34204;SDS011;20471;49.680;20.074;2024-01-27T09:24:08;13.80;;;3.00;;
34204;SDS011;20471;49.680;20.074;2024-01-27T09:26:36;15.40;;;3.30;;
34204;SDS011;20471;49.680;20.074;2024-01-27T09:29:04;10.00;;;3.40;;
34204;SDS011;20471;49.680;20.074;2024-01-27T09:31:31;14.40;;;3.60;;
34204;SDS011;20471;49.680;20.074;2024-01-27T09:33:59;15.40;;;3.60;;
34204;SDS011;20471;49.680;20.074;2024-01-27T09:36:27;12.10;;;3.10;;
34204;SDS011;20471;49.680;20.074;2024-01-27T09:38:55;8.70;;;2.80;;
34204;SDS011;20471;49.680;20.074;2024-01-27T09:41:23;18.60;;;4.30;;
34204;SDS011;20471;49.680;20.074;2024-01-27T09:43:50;18.40;;;4.70;;
34204;SDS011;20471;49.680;20.074;2024-01-27T09:46:21;15.10;;;5.70;;
34204;SDS011;20471;49.680;20.074;2024-01-27T09:48:49;15.60;;;5.50;;
34204;SDS011;20471;49.680;20.074;2024-01-27T09:51:17;11.40;;;4.50;;
34204;SDS011;20471;49.680;20.074;2024-01-27T09:53:44;11.50;;;4.30;;
34204;SDS011;20471;49.680;20.074;2024-01-27T09:56:12;16.10;;;4.90;;
34204;SDS011;20471;49.680;20.074;2024-01-27T09:58:45;17.50;;;6.20;;
34204;SDS011;20471;49.680;20.074;2024-01-27T10:01:13;13.60;;;4.40;;
34204;SDS011;20471;49.680;20.074;2024-01-27T10:03:43;18.40;;;6.70;;
34204;SDS011;20471;49.680;20.074;2024-01-27T10:06:11;17.90;;;6.70;;
34204;SDS011;20471;49.680;20.074;2024-01-27T10:08:40;14.60;;;4.60;;
34204;SDS011;20471;49.680;20.074;2024-01-27T10:11:09;16.90;;;5.80;;
34204;SDS011;20471;49.680;20.074;2024-01-27T10:13:37;16.70;;;5.70;;
34204;SDS011;20471;49.680;20.074;2024-01-27T10:16:05;13.50;;;5.90;;
34204;SDS011;20471;49.680;20.074;2024-01-27T10:18:59;13.30;;;5.70;;
34204;SDS011;20471;49.680;20.074;2024-01-27T10:21:28;19.20;;;7.00;;
34204;SDS011;20471;49.680;20.074;2024-01-27T10:23:57;17.70;;;7.30;;
34204;SDS011;20471;49.680;20.074;2024-01-27T10:26:24;15.50;;;5.90;;
34204;SDS011;20471;49.680;20.074;2024-01-27T10:28:55;13.50;;;5.20;;
34204;SDS011;20471;49.680;20.074;2024-01-27T10:31:27;12.50;;;4.10;;
34204;SDS011;20471;49.680;20.074;2024-01-27T10:33:56;14.40;;;4.80;;
34204;SDS011;20471;49.680;20.074;2024-01-27T10:36:25;12.90;;;5.20;;
34204;SDS011;20471;49.680;20.074;2024-01-27T10:38:53;12.30;;;5.40;;
34204;SDS011;20471;49.680;20.074;2024-01-27T10:41:22;14.10;;;5.00;;
34204;SDS011;20471;49.680;20.074;2024-01-27T10:43:53;11.80;;;4.30;;
34204;SDS011;20471;49.680;20.074;2024-01-27T10:46:24;14.10;;;5.90;;
34204;SDS011;20471;49.680;20.074;2024-01-27T10:48:53;13.50;;;5.50;;
34204;SDS011;20471;49.680;20.074;2024-01-27T10:51:30;17.20;;;7.40;;
34204;SDS011;20471;49.680;20.074;2024-01-27T10:54:02;20.90;;;8.70;;
34204;SDS011;20471;49.680;20.074;2024-01-27T10:56:33;13.20;;;6.20;;
34204;SDS011;20471;49.680;20.074;2024-01-27T10:59:01;11.60;;;5.20;;
34204;SDS011;20471;49.680;20.074;2024-01-27T11:01:32;16.00;;;5.60;;
34204;SDS011;20471;49.680;20.074;2024-01-27T11:04:02;18.80;;;6.60;;
34204;SDS011;20471;49.680;20.074;2024-01-27T11:06:32;10.40;;;5.10;;
34204;SDS011;20471;49.680;20.074;2024-01-27T11:09:02;9.00;;;4.60;;
34204;SDS011;20471;49.680;20.074;2024-01-27T11:11:31;11.80;;;5.50;;
34204;SDS011;20471;49.680;20.074;2024-01-27T11:13:59;12.90;;;5.10;;
34204;SDS011;20471;49.680;20.074;2024-01-27T11:16:27;15.60;;;5.10;;
34204;SDS011;20471;49.680;20.074;2024-01-27T11:18:55;16.20;;;5.20;;
34204;SDS011;20471;49.680;20.074;2024-01-27T11:21:23;8.80;;;4.10;;
34204;SDS011;20471;49.680;20.074;2024-01-27T11:23:51;16.60;;;6.10;;
34204;SDS011;20471;49.680;20.074;2024-01-27T11:26:19;16.40;;;5.10;;
34204;SDS011;20471;49.680;20.074;2024-01-27T11:28:51;14.00;;;4.70;;
34204;SDS011;20471;49.680;20.074;2024-01-27T11:31:19;12.00;;;4.50;;
34204;SDS011;20471;49.680;20.074;2024-01-27T11:33:49;8.00;;;3.40;;
34204;SDS011;20471;49.680;20.074;2024-01-27T11:36:19;16.30;;;5.40;;
34204;SDS011;20471;49.680;20.074;2024-01-27T11:38:49;10.60;;;4.10;;
34204;SDS011;20471;49.680;20.074;2024-01-27T11:41:25;11.00;;;4.20;;
34204;SDS011;20471;49.680;20.074;2024-01-27T11:43:54;8.80;;;3.70;;
34204;SDS011;20471;49.680;20.074;2024-01-27T11:46:27;11.70;;;4.30;;
34204;SDS011;20471;49.680;20.074;2024-01-27T11:48:55;6.20;;;3.20;;
34204;SDS011;20471;49.680;20.074;2024-01-27T11:51:24;10.00;;;4.50;;
34204;SDS011;20471;49.680;20.074;2024-01-27T11:53:52;13.50;;;5.50;;
34204;SDS011;20471;49.680;20.074;2024-01-27T11:56:19;14.60;;;5.30;;
34204;SDS011;20471;49.680;20.074;2024-01-27T11:58:49;17.90;;;6.40;;
34204;SDS011;20471;49.680;20.074;2024-01-27T12:01:17;16.20;;;6.30;;
34204;SDS011;20471;49.680;20.074;2024-01-27T12:03:44;13.90;;;6.00;;
34204;SDS011;20471;49.680;20.074;2024-01-27T12:06:12;12.00;;;5.10;;
34204;SDS011;20471;49.680;20.074;2024-01-27T12:08:41;14.90;;;6.80;;
34204;SDS011;20471;49.680;20.074;2024-01-27T12:11:13;13.30;;;5.20;;
34204;SDS011;20471;49.680;20.074;2024-01-27T12:13:41;10.20;;;4.50;;
34204;SDS011;20471;49.680;20.074;2024-01-27T12:16:10;16.40;;;5.90;;
34204;SDS011;20471;49.680;20.074;2024-01-27T12:18:38;13.80;;;7.20;;
34204;SDS011;20471;49.680;20.074;2024-01-27T12:21:05;9.10;;;4.70;;
34204;SDS011;20471;49.680;20.074;2024-01-27T12:23:33;13.30;;;4.30;;
34204;SDS011;20471;49.680;20.074;2024-01-27T12:26:01;13.70;;;5.40;;
34204;SDS011;20471;49.680;20.074;2024-01-27T12:28:29;13.30;;;5.20;;
34204;SDS011;20471;49.680;20.074;2024-01-27T12:30:56;14.10;;;4.30;;
34204;SDS011;20471;49.680;20.074;2024-01-27T12:33:24;14.80;;;5.80;;
34204;SDS011;20471;49.680;20.074;2024-01-27T12:35:52;12.30;;;5.20;;
34204;SDS011;20471;49.680;20.074;2024-01-27T12:38:21;11.30;;;4.80;;
34204;SDS011;20471;49.680;20.074;2024-01-27T12:40:50;15.00;;;4.90;;
34204;SDS011;20471;49.680;20.074;2024-01-27T12:43:17;14.60;;;5.90;;
34204;SDS011;20471;49.680;20.074;2024-01-27T12:45:45;14.90;;;6.20;;
34204;SDS011;20471;49.680;20.074;2024-01-27T12:48:13;14.70;;;7.20;;
34204;SDS011;20471;49.680;20.074;2024-01-27T12:50:40;16.70;;;8.00;;
34204;SDS011;20471;49.680;20.074;2024-01-27T12:53:08;20.90;;;9.40;;
34204;SDS011;20471;49.680;20.074;2024-01-27T12:55:36;21.70;;;9.70;;
34204;SDS011;20471;49.680;20.074;2024-01-27T12:58:03;18.50;;;6.70;;
34204;SDS011;20471;49.680;20.074;2024-01-27T13:00:31;23.60;;;9.30;;
34204;SDS011;20471;49.680;20.074;2024-01-27T13:02:59;16.30;;;6.30;;
34204;SDS011;20471;49.680;20.074;2024-01-27T13:05:27;18.20;;;6.60;;
34204;SDS011;20471;49.680;20.074;2024-01-27T13:07:55;16.10;;;7.00;;
34204;SDS011;20471;49.680;20.074;2024-01-27T13:10:23;14.30;;;6.30;;
34204;SDS011;20471;49.680;20.074;2024-01-27T13:12:51;19.40;;;7.20;;
34204;SDS011;20471;49.680;20.074;2024-01-27T13:15:18;12.50;;;6.00;;
34204;SDS011;20471;49.680;20.074;2024-01-27T13:17:46;14.90;;;6.30;;
34204;SDS011;20471;49.680;20.074;2024-01-27T13:20:14;15.90;;;6.30;;
34204;SDS011;20471;49.680;20.074;2024-01-27T13:22:43;13.90;;;5.70;;
34204;SDS011;20471;49.680;20.074;2024-01-27T13:25:11;18.30;;;7.40;;
34204;SDS011;20471;49.680;20.074;2024-01-27T13:27:39;14.60;;;5.80;;
34204;SDS011;20471;49.680;20.074;2024-01-27T13:30:07;11.20;;;5.00;;
34204;SDS011;20471;49.680;20.074;2024-01-27T13:32:35;12.30;;;5.50;;
34204;SDS011;20471;49.680;20.074;2024-01-27T13:35:03;13.00;;;6.80;;
34204;SDS011;20471;49.680;20.074;2024-01-27T13:37:31;12.50;;;6.30;;
34204;SDS011;20471;49.680;20.074;2024-01-27T13:40:00;13.60;;;6.30;;
34204;SDS011;20471;49.680;20.074;2024-01-27T13:42:30;16.20;;;6.70;;
34204;SDS011;20471;49.680;20.074;2024-01-27T13:44:58;10.90;;;5.60;;
34204;SDS011;20471;49.680;20.074;2024-01-27T13:47:25;10.40;;;5.40;;
34204;SDS011;20471;49.680;20.074;2024-01-27T13:49:54;13.70;;;6.20;;
34204;SDS011;20471;49.680;20.074;2024-01-27T13:52:22;10.60;;;5.40;;
34204;SDS011;20471;49.680;20.074;2024-01-27T13:54:49;11.60;;;5.40;;
34204;SDS011;20471;49.680;20.074;2024-01-27T13:57:17;10.50;;;4.90;;
34204;SDS011;20471;49.680;20.074;2024-01-27T13:59:45;14.70;;;6.70;;
34204;SDS011;20471;49.680;20.074;2024-01-27T14:02:13;13.40;;;6.60;;
34204;SDS011;20471;49.680;20.074;2024-01-27T14:04:40;13.90;;;6.80;;
34204;SDS011;20471;49.680;20.074;2024-01-27T14:07:08;14.70;;;5.80;;
34204;SDS011;20471;49.680;20.074;2024-01-27T14:09:36;10.90;;;5.80;;
34204;SDS011;20471;49.680;20.074;2024-01-27T14:12:05;12.10;;;6.30;;
34204;SDS011;20471;49.680;20.074;2024-01-27T14:14:33;12.80;;;5.90;;
34204;SDS011;20471;49.680;20.074;2024-01-27T14:17:02;10.30;;;5.40;;
34204;SDS011;20471;49.680;20.074;2024-01-27T14:19:30;12.00;;;6.10;;
34204;SDS011;20471;49.680;20.074;2024-01-27T14:21:58;15.20;;;6.50;;
34204;SDS011;20471;49.680;20.074;2024-01-27T14:24:26;15.40;;;6.60;;
34204;SDS011;20471;49.680;20.074;2024-01-27T14:26:53;16.10;;;7.40;;
34204;SDS011;20471;49.680;20.074;2024-01-27T14:29:21;17.40;;;7.10;;
34204;SDS011;20471;49.680;20.074;2024-01-27T14:31:49;19.60;;;7.40;;
34204;SDS011;20471;49.680;20.074;2024-01-27T14:34:17;19.70;;;8.00;;
34204;SDS011;20471;49.680;20.074;2024-01-27T14:36:44;15.30;;;6.80;;
34204;SDS011;20471;49.680;20.074;2024-01-27T14:39:12;21.00;;;7.30;;
34204;SDS011;20471;49.680;20.074;2024-01-27T14:41:40;18.20;;;8.30;;
34204;SDS011;20471;49.680;20.074;2024-01-27T14:44:07;23.10;;;8.50;;
34204;SDS011;20471;49.680;20.074;2024-01-27T14:46:37;20.10;;;7.30;;
34204;SDS011;20471;49.680;20.074;2024-01-27T14:49:06;22.50;;;8.90;;
34204;SDS011;20471;49.680;20.074;2024-01-27T14:51:35;16.10;;;7.70;;
34204;SDS011;20471;49.680;20.074;2024-01-27T14:54:02;19.00;;;8.50;;
34204;SDS011;20471;49.680;20.074;2024-01-27T14:56:32;18.40;;;8.40;;
34204;SDS011;20471;49.680;20.074;2024-01-27T14:59:00;14.20;;;7.60;;
34204;SDS011;20471;49.680;20.074;2024-01-27T15:01:27;16.50;;;7.70;;
34204;SDS011;20471;49.680;20.074;2024-01-27T15:03:55;14.30;;;6.50;;
34204;SDS011;20471;49.680;20.074;2024-01-27T15:06:23;15.40;;;7.40;;
34204;SDS011;20471;49.680;20.074;2024-01-27T15:08:50;18.10;;;7.40;;
34204;SDS011;20471;49.680;20.074;2024-01-27T15:11:18;15.80;;;7.80;;
34204;SDS011;20471;49.680;20.074;2024-01-27T15:13:46;17.20;;;7.30;;
34204;SDS011;20471;49.680;20.074;2024-01-27T15:16:13;15.40;;;6.70;;
34204;SDS011;20471;49.680;20.074;2024-01-27T15:18:41;12.60;;;6.30;;
34204;SDS011;20471;49.680;20.074;2024-01-27T15:21:10;13.40;;;6.10;;
34204;SDS011;20471;49.680;20.074;2024-01-27T15:23:38;12.70;;;6.60;;
34204;SDS011;20471;49.680;20.074;2024-01-27T15:26:06;14.70;;;6.20;;
34204;SDS011;20471;49.680;20.074;2024-01-27T15:28:35;10.00;;;5.80;;
34204;SDS011;20471;49.680;20.074;2024-01-27T15:31:03;12.30;;;5.80;;
34204;SDS011;20471;49.680;20.074;2024-01-27T15:33:31;12.80;;;6.20;;
34204;SDS011;20471;49.680;20.074;2024-01-27T15:35:59;11.70;;;6.00;;
34204;SDS011;20471;49.680;20.074;2024-01-27T15:38:27;15.40;;;5.70;;
34204;SDS011;20471;49.680;20.074;2024-01-27T15:40:54;13.10;;;6.70;;
34204;SDS011;20471;49.680;20.074;2024-01-27T15:43:22;9.40;;;5.50;;
34204;SDS011;20471;49.680;20.074;2024-01-27T15:45:50;11.70;;;6.10;;
34204;SDS011;20471;49.680;20.074;2024-01-27T15:48:18;15.30;;;6.30;;
34204;SDS011;20471;49.680;20.074;2024-01-27T15:50:46;10.60;;;5.60;;
34204;SDS011;20471;49.680;20.074;2024-01-27T15:53:13;12.20;;;6.00;;
34204;SDS011;20471;49.680;20.074;2024-01-27T15:55:41;12.60;;;6.90;;
34204;SDS011;20471;49.680;20.074;2024-01-27T15:58:09;10.90;;;6.20;;